Time;durP1;ratioP1;P1;durP2;ratioP2;P2;SDS_P1;SDS_P2;PMS_P1;PMS_P2;Temp;Humidity;BMP_temperature;BMP_pressure;BME280_temperature;BME280_humidity;BME280_pressure;Samples;Min_cycle;Max_cycle;Signal;HPM_P1;HPM_P2
2022/11/05 00:09:40;;;;;;;28.25;21.95;;;;;;;12.12;60.73;94533.59;5019285;28;20611;-67
2022/11/05 00:17:56;;;;;;;28.17;22.45;;;;;;;12.16;60.65;94524.31;4954803;28;20228;-68
2022/11/05 00:20:21;;;;;;;28.33;23.38;;;;;;;12.04;61.20;94502.00;4934933;29;20201;-69
2022/11/05 00:25:30;;;;;;;29.42;22.60;;;;;;;12.16;60.70;94519.03;4935090;29;20318;-67
2022/11/05 00:28:00;;;;;;;27.50;22.40;;;;;;;12.28;60.51;94511.59;4939942;28;20283;-67
2022/11/05 00:30:27;;;;;;;28.00;21.70;;;;;;;12.25;60.57;94515.38;4950506;28;21022;-70
2022/11/05 00:32:53;;;;;;;30.20;22.75;;;;;;;12.19;60.88;94516.09;4933188;29;20426;-68
2022/11/05 00:35:21;;;;;;;25.08;22.23;;;;;;;12.14;61.19;94495.53;4935009;29;20212;-68
2022/11/05 00:37:46;;;;;;;26.30;22.30;;;;;;;12.10;61.27;94504.75;4950086;28;20200;-67
2022/11/05 00:40:13;;;;;;;27.50;22.63;;;;;;;12.25;60.89;94494.28;4934728;29;20223;-68
2022/11/05 00:45:27;;;;;;;29.00;22.77;;;;;;;12.19;61.05;94513.47;4972978;28;20800;-66
2022/11/05 00:50:36;;;;;;;27.02;22.55;;;;;;;12.09;61.10;94512.84;5025797;28;20236;-69
2022/11/05 00:53:02;;;;;;;31.38;23.13;;;;;;;12.00;61.79;94487.53;5022529;28;20190;-69
2022/11/05 00:55:29;;;;;;;30.90;22.65;;;;;;;11.99;61.85;94485.88;5020950;28;20603;-68
2022/11/05 00:57:56;;;;;;;26.25;21.45;;;;;;;11.98;61.78;94492.16;5021700;28;20190;-68
2022/11/05 01:00:23;;;;;;;27.00;22.80;;;;;;;11.98;61.91;94484.25;5018515;28;20198;-67
2022/11/05 01:02:49;;;;;;;27.70;21.92;;;;;;;12.09;61.53;94497.03;5021289;28;20213;-67
2022/11/05 01:05:15;;;;;;;31.42;24.00;;;;;;;11.95;61.81;94485.44;5017078;28;20672;-67
2022/11/05 01:07:40;;;;;;;25.55;22.85;;;;;;;12.00;61.98;94493.63;5023880;28;20194;-67
2022/11/05 01:10:06;;;;;;;27.08;22.45;;;;;;;12.10;61.72;94482.84;5031799;28;20248;-67
2022/11/05 01:12:32;;;;;;;24.73;21.42;;;;;;;12.03;61.86;94460.81;5031195;28;20190;-67
2022/11/05 01:14:58;;;;;;;27.73;22.73;;;;;;;11.97;62.06;94472.88;5027063;28;20190;-68
2022/11/05 01:17:23;;;;;;;29.38;22.38;;;;;;;12.02;61.87;94473.19;5025625;28;20191;-68
2022/11/05 01:19:48;;;;;;;27.75;22.65;;;;;;;12.09;61.80;94466.22;5028187;28;20944;-71
2022/11/05 01:22:14;;;;;;;26.35;22.63;;;;;;;12.15;61.57;94472.63;5024848;28;20196;-70
2022/11/05 01:24:40;;;;;;;25.40;22.13;;;;;;;12.14;61.76;94469.16;5027762;28;20325;-72
2022/11/05 01:27:05;;;;;;;29.13;23.10;;;;;;;12.14;61.26;94457.81;5027019;28;20705;-69
2022/11/05 01:29:31;;;;;;;31.48;22.65;;;;;;;12.06;61.68;94461.31;5024955;28;20194;-71
2022/11/05 01:31:56;;;;;;;30.35;23.88;;;;;;;12.06;62.02;94442.06;5023050;28;20203;-70
2022/11/05 01:34:22;;;;;;;28.05;22.75;;;;;;;12.10;61.97;94443.31;5031026;28;20201;-69
2022/11/05 01:36:47;;;;;;;25.83;22.95;;;;;;;12.06;61.75;94444.69;5021359;28;20277;-69
2022/11/05 01:39:13;;;;;;;28.42;23.25;;;;;;;12.11;61.70;94447.63;5025874;28;20221;-71
2022/11/05 01:41:38;;;;;;;26.20;22.85;;;;;;;11.98;62.12;94436.84;5022080;28;20269;-70
2022/11/05 01:44:04;;;;;;;30.67;22.77;;;;;;;11.88;62.36;94437.88;5022240;28;20225;-69
2022/11/05 01:46:32;;;;;;;25.77;22.67;;;;;;;11.86;62.56;94439.03;5027090;28;20209;-67
2022/11/05 01:49:13;;;;;;;25.23;22.13;;;;;;;11.66;63.39;94434.16;5022424;28;20202;-67
2022/11/05 01:51:39;;;;;;;27.67;21.75;;;;;;;11.79;62.96;94435.44;5018476;28;20285;-70
2022/11/05 01:54:10;;;;;;;26.23;22.60;;;;;;;11.70;62.98;94443.34;5025022;28;20323;-70
2022/11/05 01:56:48;;;;;;;26.65;22.98;;;;;;;11.79;63.02;94432.81;5030189;28;20584;-68
2022/11/05 01:59:42;;;;;;;27.17;22.77;;;;;;;11.76;62.90;94412.91;5034396;28;21014;-67
2022/11/05 02:02:07;;;;;;;25.40;22.55;;;;;;;11.41;63.77;94419.47;5023351;28;20285;-68
2022/11/05 02:04:56;;;;;;;29.85;24.27;;;;;;;11.62;63.58;94421.50;5029050;28;20281;-68
2022/11/05 02:07:24;;;;;;;26.75;24.05;;;;;;;11.62;63.25;94416.25;5020440;28;20218;-67
2022/11/05 02:10:12;;;;;;;27.30;23.35;;;;;;;11.62;63.40;94410.97;5022222;28;20344;-69
2022/11/05 02:12:42;;;;;;;29.85;23.58;;;;;;;11.60;63.82;94424.34;5024930;28;20221;-68
2022/11/05 02:15:26;;;;;;;28.83;23.50;;;;;;;11.62;63.38;94413.63;5036926;28;20202;-68
2022/11/05 02:17:51;;;;;;;27.58;24.60;;;;;;;11.57;63.80;94426.47;5024751;28;20201;-69
2022/11/05 02:20:39;;;;;;;32.58;24.73;;;;;;;11.60;63.84;94434.88;5021374;28;20198;-68
2022/11/05 02:23:36;;;;;;;30.02;23.58;;;;;;;11.65;63.58;94416.75;5025477;28;20214;-68
2022/11/05 02:26:13;;;;;;;26.97;23.77;;;;;;;11.71;63.30;94425.75;5035679;28;20222;-68
2022/11/05 02:29:02;;;;;;;29.40;23.40;;;;;;;11.56;63.94;94423.03;5023822;28;20195;-68
2022/11/05 02:31:55;;;;;;;29.98;24.83;;;;;;;11.47;64.04;94416.19;5023032;28;20280;-68
2022/11/05 02:35:01;;;;;;;27.40;24.42;;;;;;;11.50;64.09;94417.66;5024014;28;20199;-67
2022/11/05 02:37:40;;;;;;;25.92;23.13;;;;;;;11.34;64.65;94419.34;5021164;28;20216;-68
2022/11/05 02:40:26;;;;;;;26.08;23.02;;;;;;;11.35;64.71;94422.78;5017750;28;20290;-68
2022/11/05 02:42:57;;;;;;;27.40;23.17;;;;;;;11.51;64.03;94414.81;5029070;28;20222;-64
2022/11/05 02:45:50;;;;;;;33.92;25.00;;;;;;;11.29;64.60;94413.78;5021846;28;20214;-63
2022/11/05 02:48:30;;;;;;;32.95;24.88;;;;;;;11.33;64.84;94417.69;5033081;28;20191;-64
2022/11/05 02:51:18;;;;;;;27.02;24.05;;;;;;;11.26;64.84;94417.56;5024327;28;20245;-63
2022/11/05 02:53:57;;;;;;;25.77;23.02;;;;;;;11.25;64.91;94423.00;5018496;28;20238;-64
2022/11/05 02:56:31;;;;;;;29.95;23.98;;;;;;;11.24;65.20;94430.06;5036671;28;20524;-64
2022/11/05 02:58:56;;;;;;;27.27;24.20;;;;;;;11.41;64.51;94424.72;5021819;28;20236;-64
2022/11/05 03:01:22;;;;;;;27.98;22.88;;;;;;;11.41;64.17;94435.25;5028661;28;20236;-64
2022/11/05 03:03:52;;;;;;;28.38;24.38;;;;;;;11.32;64.62;94438.94;5023087;28;20197;-64
2022/11/05 03:06:36;;;;;;;29.48;24.30;;;;;;;11.34;64.46;94414.09;5030636;28;20210;-64
2022/11/05 03:09:14;;;;;;;30.55;24.38;;;;;;;11.32;64.44;94421.31;5039793;28;20229;-64
2022/11/05 03:11:48;;;;;;;26.65;23.70;;;;;;;11.29;64.69;94420.84;5025059;28;20304;-63
2022/11/05 03:14:34;;;;;;;26.60;23.73;;;;;;;11.26;65.00;94438.63;5023285;28;20218;-65
2022/11/05 03:17:30;;;;;;;27.85;23.80;;;;;;;11.10;65.69;94433.41;5019740;28;20238;-64
2022/11/05 03:20:20;;;;;;;30.48;25.08;;;;;;;11.18;65.30;94430.75;5025085;28;20191;-63
2022/11/05 03:22:59;;;;;;;27.43;23.73;;;;;;;11.37;64.47;94429.53;5035508;28;20182;-65
2022/11/05 03:25:28;;;;;;;27.48;24.55;;;;;;;11.18;64.69;94425.50;5022975;28;20210;-63
2022/11/05 03:27:57;;;;;;;32.60;25.27;;;;;;;11.15;65.05;94431.09;5023478;28;20251;-63
2022/11/05 03:30:24;;;;;;;39.97;27.87;;;;;;;11.19;65.03;94421.84;5027951;28;20193;-64
2022/11/05 03:33:07;;;;;;;32.97;26.65;;;;;;;11.23;65.17;94433.69;5025018;28;20622;-63
2022/11/05 03:35:45;;;;;;;29.40;25.77;;;;;;;11.20;64.86;94431.41;5023357;28;20179;-62
2022/11/05 03:38:20;;;;;;;32.05;25.45;;;;;;;11.36;64.48;94438.44;5035597;28;20194;-63
2022/11/05 03:40:50;;;;;;;27.48;23.73;;;;;;;11.20;65.25;94449.84;5025095;28;20189;-63
2022/11/05 03:43:19;;;;;;;28.10;24.00;;;;;;;11.19;65.22;94452.63;5030322;28;20618;-63
2022/11/05 03:45:55;;;;;;;29.83;25.13;;;;;;;11.24;65.11;94458.19;5021414;28;20206;-63
2022/11/05 03:48:26;;;;;;;32.42;25.38;;;;;;;11.30;65.00;94469.84;5028940;28;20193;-62
2022/11/05 03:51:13;;;;;;;29.25;24.42;;;;;;;11.18;65.00;94458.88;5017798;28;20238;-63
2022/11/05 03:53:48;;;;;;;29.58;24.60;;;;;;;11.18;65.35;94464.97;5014223;28;20653;-63
2022/11/05 03:56:26;;;;;;;29.97;24.40;;;;;;;11.30;65.03;94468.03;5026205;28;20188;-62
2022/11/05 03:58:53;;;;;;;31.27;26.27;;;;;;;11.32;64.77;94466.06;5030327;28;20201;-63
2022/11/05 04:01:19;;;;;;;33.87;24.27;;;;;;;11.28;64.88;94475.31;5020792;28;20213;-62
2022/11/05 04:03:44;;;;;;;27.92;24.17;;;;;;;11.27;65.26;94481.53;5022610;28;20555;-63
2022/11/05 04:14:22;;;;;;;29.17;24.70;;;;;;;11.20;64.82;94465.63;5023587;28;20193;-63
2022/11/05 04:17:05;;;;;;;29.13;24.80;;;;;;;11.06;65.42;94457.59;5017074;28;20557;-64
2022/11/05 04:25:24;;;;;;;28.45;23.83;;;;;;;11.05;65.76;94475.19;4970995;28;20258;-63
2022/11/05 04:27:50;;;;;;;27.10;24.23;;;;;;;11.14;65.58;94479.44;4955040;28;20215;-64
2022/11/05 04:30:20;;;;;;;29.25;24.80;;;;;;;11.09;65.59;94481.75;4941254;28;20682;-63
2022/11/05 04:33:06;;;;;;;29.00;25.52;;;;;;;11.16;65.41;94489.81;4970765;28;20191;-63
2022/11/05 04:35:40;;;;;;;32.17;25.55;;;;;;;11.07;65.73;94475.84;4970597;28;20255;-63
2022/11/05 04:38:07;;;;;;;29.80;25.03;;;;;;;11.07;65.70;94483.75;4962462;28;20226;-63
2022/11/05 04:40:33;;;;;;;33.53;25.98;;;;;;;11.02;66.21;94493.94;4957545;28;20224;-63
2022/11/05 04:42:59;;;;;;;28.17;24.00;;;;;;;10.96;66.31;94494.59;4956932;28;20271;-63
2022/11/05 04:45:26;;;;;;;29.80;24.40;;;;;;;10.89;66.25;94504.97;4961393;28;20249;-63
2022/11/05 04:47:52;;;;;;;28.30;23.63;;;;;;;10.86;66.28;94501.88;4954138;28;20270;-62
2022/11/05 04:50:20;;;;;;;27.77;23.85;;;;;;;10.89;65.95;94499.72;4952852;28;20196;-62
2022/11/05 04:52:46;;;;;;;32.85;24.70;;;;;;;10.89;66.17;94489.19;4921502;29;20197;-62
2022/11/05 04:55:12;;;;;;;29.40;25.13;;;;;;;10.79;66.39;94493.81;4922617;29;21144;-62
2022/11/05 04:57:38;;;;;;;27.02;23.80;;;;;;;10.95;65.70;94485.88;4916148;29;20189;-62
2022/11/05 05:00:05;;;;;;;29.50;23.95;;;;;;;11.06;65.22;94492.59;4923878;28;20181;-62
2022/11/05 05:02:31;;;;;;;29.38;24.05;;;;;;;10.95;65.53;94483.25;4984709;28;20211;-62
2022/11/05 05:04:56;;;;;;;30.27;24.48;;;;;;;10.93;65.77;94484.41;4987267;28;20273;-62
2022/11/05 05:07:22;;;;;;;28.05;24.42;;;;;;;10.95;66.01;94488.50;4976202;28;20224;-63
2022/11/05 05:09:47;;;;;;;33.15;25.00;;;;;;;10.89;66.06;94488.38;4982574;28;20195;-62
2022/11/05 05:12:12;;;;;;;32.58;25.92;;;;;;;10.84;66.36;94486.25;4982785;28;20188;-62
2022/11/05 05:14:38;;;;;;;30.90;24.30;;;;;;;10.85;66.60;94497.56;4974285;28;20243;-62
2022/11/05 05:17:03;;;;;;;29.70;24.70;;;;;;;10.94;66.51;94507.13;4998579;28;20187;-62
2022/11/05 05:19:29;;;;;;;30.30;25.75;;;;;;;11.00;66.39;94515.16;4985085;28;20190;-62
2022/11/05 05:21:54;;;;;;;30.60;25.33;;;;;;;11.02;66.07;94523.69;4978277;28;20192;-62
2022/11/05 05:24:20;;;;;;;30.98;24.88;;;;;;;11.06;65.83;94512.84;4982489;28;20783;-63
2022/11/05 05:26:48;;;;;;;31.87;25.77;;;;;;;11.04;66.12;94515.66;4987720;28;20207;-62
2022/11/05 05:29:14;;;;;;;32.20;25.33;;;;;;;10.96;66.43;94510.38;4977634;28;20181;-63
2022/11/05 05:31:41;;;;;;;27.80;24.67;;;;;;;11.04;66.75;94529.63;4986486;28;20184;-63
2022/11/05 05:34:09;;;;;;;30.80;25.63;;;;;;;11.04;66.16;94515.66;4979008;28;20184;-62
2022/11/05 05:36:34;;;;;;;31.20;24.75;;;;;;;10.99;66.33;94529.31;4973637;28;20185;-62
2022/11/05 05:39:00;;;;;;;32.60;25.95;;;;;;;11.06;66.43;94537.34;4989866;28;20231;-63
2022/11/05 05:41:25;;;;;;;34.33;26.83;;;;;;;10.96;66.93;94544.56;4981460;28;20257;-62
2022/11/05 05:43:51;;;;;;;33.10;26.40;;;;;;;11.21;66.21;94545.38;4984873;28;20233;-62
2022/11/05 05:46:18;;;;;;;30.95;26.08;;;;;;;11.36;65.78;94551.63;4977563;28;20203;-63
2022/11/05 05:48:49;;;;;;;32.50;26.50;;;;;;;11.57;65.00;94545.78;4995602;28;20570;-62
2022/11/05 05:51:15;;;;;;;31.77;27.77;;;;;;;11.63;64.67;94545.13;5007794;28;20271;-62
2022/11/05 05:53:41;;;;;;;29.25;25.48;;;;;;;11.62;64.49;94547.91;5030552;28;20285;-62
2022/11/05 05:56:06;;;;;;;36.55;27.75;;;;;;;11.56;64.30;94544.16;5032680;28;20268;-62
2022/11/05 05:58:38;;;;;;;32.97;27.90;;;;;;;11.57;64.32;94560.75;5027630;28;20233;-62
2022/11/05 06:01:12;;;;;;;36.65;27.33;;;;;;;11.59;64.37;94554.34;5022180;28;20657;-62
2022/11/05 06:03:37;;;;;;;40.28;29.02;;;;;;;11.68;64.49;94561.25;5030449;28;20204;-62
2022/11/05 06:06:08;;;;;;;33.20;27.10;;;;;;;11.78;63.89;94562.84;5010680;28;20206;-62
2022/11/05 06:08:35;;;;;;;33.88;27.63;;;;;;;11.68;63.93;94555.97;5023013;28;20179;-62
2022/11/05 06:11:02;;;;;;;35.10;27.33;;;;;;;11.76;63.85;94547.22;5040076;28;20276;-62
2022/11/05 06:13:28;;;;;;;35.30;27.48;;;;;;;11.78;64.00;94547.84;5031902;28;20657;-62
2022/11/05 06:16:03;;;;;;;34.35;28.35;;;;;;;11.83;63.85;94545.53;5025167;28;20185;-64
2022/11/05 06:18:30;;;;;;;34.95;28.45;;;;;;;11.95;63.81;94558.34;5024418;28;20190;-64
2022/11/05 06:21:00;;;;;;;33.33;27.88;;;;;;;11.99;63.34;94549.94;5030594;28;20186;-62
2022/11/05 06:23:26;;;;;;;32.45;25.45;;;;;;;12.03;63.46;94555.69;5028474;28;20185;-63
2022/11/05 06:25:51;;;;;;;27.08;24.17;;;;;;;11.97;63.62;94545.84;5021708;28;20195;-63
2022/11/05 06:28:17;;;;;;;30.42;22.77;;;;;;;12.11;63.45;94548.59;5026454;28;20245;-63
2022/11/05 06:30:42;;;;;;;30.52;24.33;;;;;;;12.19;62.63;94545.09;5027955;28;20182;-64
2022/11/05 06:33:07;;;;;;;29.98;23.45;;;;;;;12.25;62.63;94544.38;5028771;28;20596;-63
2022/11/05 06:35:33;;;;;;;25.73;23.02;;;;;;;12.38;61.93;94543.00;5024233;28;20269;-63
2022/11/05 06:38:00;;;;;;;27.52;22.33;;;;;;;12.52;61.66;94553.59;5027926;28;20548;-63
2022/11/05 06:40:25;;;;;;;25.65;22.90;;;;;;;12.47;61.66;94552.50;5021515;28;20193;-63
2022/11/05 06:42:51;;;;;;;28.05;23.13;;;;;;;12.44;61.76;94539.66;5023119;28;20584;-63
2022/11/05 06:45:17;;;;;;;30.67;23.27;;;;;;;12.50;61.31;94533.69;5019045;28;20190;-64
2022/11/05 06:47:42;;;;;;;26.65;23.75;;;;;;;12.54;61.10;94530.53;5027935;28;20186;-63
2022/11/05 06:50:08;;;;;;;33.10;24.33;;;;;;;12.57;61.23;94532.81;5025190;28;20213;-62
2022/11/05 06:52:33;;;;;;;28.67;24.17;;;;;;;12.77;60.81;94535.78;5027352;28;20257;-64
2022/11/05 06:54:59;;;;;;;29.60;24.90;;;;;;;12.78;60.53;94526.06;5025335;28;20181;-63
2022/11/05 06:57:24;;;;;;;26.73;23.85;;;;;;;12.91;60.24;94528.94;5020096;28;20186;-63
2022/11/05 06:59:50;;;;;;;29.02;23.65;;;;;;;12.89;60.45;94530.09;5024212;28;20646;-63
2022/11/05 07:02:17;;;;;;;29.38;23.48;;;;;;;13.15;59.75;94527.91;5022165;28;20337;-63
2022/11/05 07:04:42;;;;;;;30.67;23.17;;;;;;;13.30;59.27;94527.94;5024920;28;20207;-62
2022/11/05 07:07:08;;;;;;;26.15;23.35;;;;;;;13.44;58.68;94524.50;5024774;28;20325;-63
2022/11/05 07:09:37;;;;;;;26.13;23.38;;;;;;;13.64;58.09;94513.38;5030150;28;20264;-63
2022/11/05 07:12:03;;;;;;;26.67;22.45;;;;;;;13.70;57.91;94517.94;5021810;28;20182;-63
2022/11/05 07:14:29;;;;;;;24.67;22.15;;;;;;;13.86;57.58;94525.66;5008365;28;20190;-63
2022/11/05 07:16:56;;;;;;;31.55;25.05;;;;;;;13.84;57.49;94508.34;5026928;28;20245;-62
2022/11/05 07:19:21;;;;;;;26.77;23.27;;;;;;;13.94;57.25;94506.25;5025929;28;20187;-62
2022/11/05 07:21:47;;;;;;;26.15;23.40;;;;;;;13.97;57.42;94519.09;5025016;28;20545;-62
2022/11/05 07:24:14;;;;;;;25.52;21.58;;;;;;;14.19;56.93;94514.66;5018410;28;20289;-62
2022/11/05 07:26:39;;;;;;;23.55;19.50;;;;;;;14.20;56.82;94508.38;5026552;28;20215;-62
2022/11/05 07:29:05;;;;;;;24.95;19.42;;;;;;;14.41;55.84;94499.66;5025291;28;20187;-63
2022/11/05 07:31:30;;;;;;;25.65;19.45;;;;;;;14.56;54.75;94507.56;5031244;28;20186;-62
2022/11/05 07:33:57;;;;;;;23.55;18.85;;;;;;;14.68;54.76;94515.84;5022729;28;20555;-62
2022/11/05 07:36:23;;;;;;;21.73;19.17;;;;;;;14.80;54.59;94519.59;5027636;28;20583;-62
2022/11/05 07:38:49;;;;;;;20.73;18.42;;;;;;;14.79;53.90;94502.09;5027574;28;20269;-62
2022/11/05 07:41:14;;;;;;;22.08;19.20;;;;;;;14.97;54.03;94510.38;5023543;28;20182;-62
2022/11/05 07:43:39;;;;;;;22.67;18.95;;;;;;;15.04;53.56;94494.53;5019838;28;20178;-63
2022/11/05 07:46:05;;;;;;;24.45;19.98;;;;;;;15.18;53.32;94487.50;5026316;28;20542;-62
2022/11/05 07:48:30;;;;;;;22.33;19.90;;;;;;;15.25;53.61;94495.53;5023562;28;20610;-62
2022/11/05 07:50:56;;;;;;;23.35;19.83;;;;;;;15.21;53.45;94492.44;5024316;28;20325;-62
2022/11/05 07:53:21;;;;;;;23.10;20.45;;;;;;;15.21;53.32;94484.50;5025347;28;20186;-63
2022/11/05 07:55:46;;;;;;;23.25;19.05;;;;;;;15.24;52.86;94484.13;5018900;28;20182;-64
2022/11/05 07:58:13;;;;;;;25.42;20.52;;;;;;;15.24;52.91;94483.31;5029500;28;20182;-63
2022/11/05 08:00:38;;;;;;;22.90;19.15;;;;;;;15.46;52.21;94486.69;5019531;28;20195;-63
2022/11/05 08:03:15;;;;;;;21.70;19.45;;;;;;;15.53;52.25;94479.59;5019988;28;21887;-63
2022/11/05 08:05:43;;;;;;;23.67;19.20;;;;;;;15.68;51.67;94484.78;5027693;28;20217;-63
2022/11/05 08:08:12;;;;;;;26.95;21.63;;;;;;;15.68;51.97;94493.53;5022952;28;20751;-63
2022/11/05 08:10:38;;;;;;;26.08;23.23;;;;;;;15.81;51.66;94480.38;5024189;28;20211;-64
2022/11/05 08:13:05;;;;;;;24.38;21.73;;;;;;;15.75;51.92;94486.47;5022554;28;20867;-64
2022/11/05 08:15:31;;;;;;;27.35;22.90;;;;;;;15.69;52.16;94492.56;5026440;28;20234;-63
2022/11/05 08:17:58;;;;;;;25.65;22.05;;;;;;;15.73;52.00;94477.91;5021864;28;20307;-63
2022/11/05 08:20:23;;;;;;;28.15;21.90;;;;;;;15.82;51.73;94478.53;5024868;28;20182;-64
2022/11/05 08:22:49;;;;;;;29.23;21.80;;;;;;;16.02;50.91;94479.44;5017894;28;20198;-63
2022/11/05 08:25:15;;;;;;;29.35;21.55;;;;;;;15.88;51.04;94483.88;5021432;28;20257;-64
2022/11/05 08:27:40;;;;;;;27.05;21.15;;;;;;;15.91;50.94;94480.03;5022654;28;20229;-65
2022/11/05 08:30:07;;;;;;;26.95;21.60;;;;;;;15.78;51.17;94485.25;5020888;28;20534;-64
2022/11/05 08:32:33;;;;;;;25.70;20.20;;;;;;;15.88;50.69;94475.94;5021754;28;20750;-64
2022/11/05 08:34:58;;;;;;;23.85;20.05;;;;;;;15.99;50.58;94477.19;5028613;28;20295;-64
2022/11/05 08:37:24;;;;;;;23.27;19.40;;;;;;;16.17;50.34;94471.34;5026584;28;20182;-64
2022/11/05 08:39:49;;;;;;;23.40;19.85;;;;;;;16.36;49.98;94466.28;5027722;28;20816;-64
2022/11/05 08:42:15;;;;;;;22.33;19.10;;;;;;;16.60;49.07;94463.09;5028164;28;20201;-64
2022/11/05 08:44:40;;;;;;;23.55;19.58;;;;;;;16.75;48.65;94474.31;5015673;28;20667;-63
2022/11/05 08:47:08;;;;;;;22.23;19.90;;;;;;;16.90;48.48;94468.03;5011031;28;20231;-64
2022/11/05 08:49:33;;;;;;;24.60;19.17;;;;;;;16.99;47.84;94461.47;5028198;28;20190;-65
2022/11/05 08:51:59;;;;;;;26.67;18.55;;;;;;;16.95;47.95;94462.94;5017056;28;20584;-63
2022/11/05 08:54:24;;;;;;;20.77;16.85;;;;;;;16.93;47.08;94468.44;5028132;28;20191;-63
2022/11/05 08:56:49;;;;;;;20.15;17.33;;;;;;;16.80;47.40;94457.81;5019393;28;20191;-63
2022/11/05 08:59:15;;;;;;;21.60;17.33;;;;;;;16.77;48.43;94466.19;5013677;28;20182;-63
2022/11/05 09:01:41;;;;;;;20.48;16.85;;;;;;;16.76;48.55;94468.00;5019282;28;20209;-62
2022/11/05 09:04:06;;;;;;;21.85;16.45;;;;;;;16.62;48.14;94463.66;5022918;28;20564;-62
2022/11/05 09:06:32;;;;;;;21.67;16.45;;;;;;;16.57;47.84;94463.47;5024220;28;20608;-63
2022/11/05 09:08:57;;;;;;;20.23;17.13;;;;;;;16.35;48.25;94459.34;5021725;28;20308;-63
2022/11/05 09:11:23;;;;;;;21.92;16.02;;;;;;;16.40;48.37;94454.25;5023734;28;20201;-64
2022/11/05 09:13:49;;;;;;;18.90;15.65;;;;;;;16.42;47.57;94449.56;5023695;28;20205;-63
2022/11/05 09:16:18;;;;;;;19.30;15.15;;;;;;;16.06;47.43;94456.00;5025065;28;20191;-63
2022/11/05 09:18:44;;;;;;;17.02;15.20;;;;;;;16.31;47.28;94464.25;5015772;28;20201;-64
2022/11/05 09:21:09;;;;;;;19.35;15.10;;;;;;;16.36;47.46;94455.66;5019773;28;20203;-63
2022/11/05 09:23:34;;;;;;;19.42;15.68;;;;;;;16.47;48.57;94455.91;5022950;28;20174;-63
2022/11/05 09:26:00;;;;;;;17.92;15.63;;;;;;;16.60;47.66;94457.78;5028445;28;20213;-63
2022/11/05 09:28:27;;;;;;;22.00;16.10;;;;;;;16.70;47.39;94446.72;5025766;28;20186;-63
2022/11/05 09:30:52;;;;;;;20.15;16.15;;;;;;;16.71;46.79;94453.69;5025098;28;20190;-64
2022/11/05 09:33:21;;;;;;;18.52;15.93;;;;;;;16.71;48.15;94454.50;5036748;28;20198;-63
2022/11/05 09:35:46;;;;;;;17.83;15.70;;;;;;;16.64;47.79;94447.56;5020249;28;20179;-63
2022/11/05 09:38:12;;;;;;;19.58;15.48;;;;;;;16.76;46.15;94440.63;5023922;28;20190;-63
2022/11/05 09:40:53;;;;;;;21.60;15.95;;;;;;;16.84;46.56;94432.50;5022406;28;20279;-64
2022/11/05 09:43:22;;;;;;;21.13;16.85;;;;;;;16.99;45.92;94440.22;5031946;28;21581;-63
2022/11/05 09:45:51;;;;;;;21.38;14.95;;;;;;;17.11;45.12;94451.06;5030273;28;20261;-63
2022/11/05 09:48:22;;;;;;;22.40;16.95;;;;;;;17.06;46.40;94445.56;5026213;28;20174;-64
2022/11/05 09:50:47;;;;;;;19.15;15.60;;;;;;;17.15;46.27;94439.81;5025091;28;20202;-63
2022/11/05 09:53:16;;;;;;;21.67;15.32;;;;;;;17.17;44.86;94439.63;5020325;28;20214;-64
2022/11/05 09:55:44;;;;;;;20.15;14.98;;;;;;;17.19;45.16;94434.91;5029087;28;20190;-63
2022/11/05 09:58:19;;;;;;;20.27;14.15;;;;;;;17.29;44.95;94445.09;5023479;28;20656;-63
2022/11/05 10:00:49;;;;;;;17.40;13.55;;;;;;;17.28;45.75;94438.97;5030805;28;20186;-63
2022/11/05 10:03:21;;;;;;;15.90;14.30;;;;;;;17.31;47.48;94446.53;5025218;28;20233;-63
2022/11/05 10:05:48;;;;;;;20.70;14.63;;;;;;;17.41;44.23;94438.94;5030435;28;20198;-64
2022/11/05 10:08:18;;;;;;;19.42;14.80;;;;;;;17.64;44.42;94437.66;5027793;28;20676;-63
2022/11/05 10:10:53;;;;;;;17.60;14.52;;;;;;;17.92;42.18;94434.72;5029077;28;20194;-64
2022/11/05 10:13:28;;;;;;;17.80;13.82;;;;;;;17.79;42.87;94440.09;5022145;28;20198;-64
2022/11/05 10:16:03;;;;;;;19.02;12.68;;;;;;;17.71;43.25;94427.00;5017161;28;20566;-64
2022/11/05 10:18:35;;;;;;;17.33;13.50;;;;;;;17.62;43.83;94421.13;5024380;28;20179;-63
2022/11/05 10:21:01;;;;;;;19.38;13.98;;;;;;;17.63;43.24;94420.09;5031428;28;20291;-64
2022/11/05 10:23:27;;;;;;;17.33;13.50;;;;;;;17.59;42.78;94422.34;5020196;28;20222;-63
2022/11/05 10:26:00;;;;;;;15.23;13.82;;;;;;;17.62;43.70;94426.44;5025254;28;20211;-63
2022/11/05 10:28:28;;;;;;;15.82;12.30;;;;;;;17.55;42.57;94422.97;5023926;28;20221;-65
2022/11/05 10:31:00;;;;;;;18.75;13.90;;;;;;;17.41;44.58;94419.53;5029894;28;20560;-65
2022/11/05 10:33:37;;;;;;;15.23;13.43;;;;;;;17.44;44.15;94413.81;5022764;28;20273;-64
2022/11/05 10:36:17;;;;;;;16.52;13.00;;;;;;;17.49;45.06;94416.66;5027048;28;20196;-65
2022/11/05 10:38:42;;;;;;;17.05;13.38;;;;;;;17.58;43.63;94425.22;5018498;28;20563;-64
2022/11/05 10:41:32;;;;;;;18.80;14.23;;;;;;;17.75;43.28;94425.53;5019352;28;20194;-65
2022/11/05 10:44:22;;;;;;;18.33;12.57;;;;;;;17.75;42.10;94406.94;5024470;28;20903;-64
2022/11/05 10:47:12;;;;;;;19.05;13.77;;;;;;;18.04;41.00;94421.56;5020537;28;20342;-64
2022/11/05 10:49:56;;;;;;;15.43;13.50;;;;;;;18.07;41.14;94421.16;4984018;28;20232;-64
2022/11/05 10:52:32;;;;;;;17.15;13.27;;;;;;;18.24;40.66;94416.16;4985031;28;20248;-65
2022/11/05 10:55:05;;;;;;;15.63;13.95;;;;;;;18.08;40.72;94402.31;4968621;28;20199;-64
2022/11/05 10:57:35;;;;;;;14.23;12.73;;;;;;;18.17;41.50;94399.41;4964410;28;20275;-64
2022/11/05 11:00:13;;;;;;;14.70;12.82;;;;;;;18.25;41.01;94401.81;4974439;28;20275;-64
2022/11/05 11:02:44;;;;;;;17.83;13.10;;;;;;;18.41;40.70;94390.66;4979416;28;21220;-62
2022/11/05 11:05:17;;;;;;;17.73;13.93;;;;;;;18.52;41.01;94403.28;4971945;28;20195;-62
2022/11/05 11:07:43;;;;;;;17.25;13.63;;;;;;;18.58;40.71;94395.44;4965014;28;20223;-63
2022/11/05 11:10:20;;;;;;;15.65;13.68;;;;;;;18.51;41.46;94392.84;4968967;28;20825;-64
2022/11/05 11:12:48;;;;;;;15.02;13.35;;;;;;;18.37;42.23;94394.78;4968484;28;20191;-64
2022/11/05 11:15:27;;;;;;;14.95;13.35;;;;;;;18.31;41.11;94393.00;4984998;28;20195;-63
2022/11/05 11:17:54;;;;;;;19.30;14.10;;;;;;;18.38;41.38;94385.75;4964003;28;20598;-66
2022/11/05 11:20:22;;;;;;;18.05;14.07;;;;;;;18.37;43.85;94388.66;4970685;28;20290;-64
2022/11/05 11:23:11;;;;;;;19.10;13.85;;;;;;;18.32;42.96;94394.63;4968444;28;20259;-63
2022/11/05 11:25:49;;;;;;;18.27;14.10;;;;;;;18.35;42.47;94380.88;4961944;28;20211;-63
2022/11/05 11:28:31;;;;;;;15.15;13.13;;;;;;;18.13;40.89;94385.72;5023619;28;20190;-63
2022/11/05 11:31:13;;;;;;;17.50;12.82;;;;;;;17.98;40.67;94375.34;5024736;28;20194;-63
2022/11/05 11:33:43;;;;;;;20.15;14.18;;;;;;;18.21;40.47;94390.78;5022255;28;20205;-64
2022/11/05 11:36:10;;;;;;;14.85;12.60;;;;;;;18.10;42.11;94398.66;5017284;28;20334;-64
2022/11/05 11:38:36;;;;;;;15.77;13.70;;;;;;;17.99;42.97;94390.31;5019165;28;20183;-64
2022/11/05 11:41:08;;;;;;;15.60;13.18;;;;;;;17.92;42.97;94378.88;5016916;28;20182;-64
2022/11/05 11:43:36;;;;;;;19.20;13.82;;;;;;;17.91;43.04;94379.91;5034183;28;20183;-64
2022/11/05 11:46:04;;;;;;;18.42;12.63;;;;;;;17.83;44.20;94388.13;5021051;28;20577;-64
2022/11/05 11:48:33;;;;;;;18.88;13.68;;;;;;;17.97;42.61;94380.91;5013091;28;20183;-63
2022/11/05 11:51:15;;;;;;;16.65;13.20;;;;;;;17.74;43.82;94392.03;5014536;28;20189;-63
2022/11/05 11:53:40;;;;;;;16.13;13.77;;;;;;;17.86;42.42;94385.06;5022302;28;20194;-65
2022/11/05 11:56:19;;;;;;;22.13;14.10;;;;;;;17.85;41.84;94376.25;5002063;28;20182;-64
2022/11/05 11:58:48;;;;;;;18.40;13.30;;;;;;;17.69;43.38;94373.22;5014914;28;21123;-63
2022/11/05 12:01:23;;;;;;;17.38;13.07;;;;;;;17.51;43.99;94379.22;5015430;28;20204;-64
2022/11/05 12:03:56;;;;;;;18.75;13.90;;;;;;;17.51;43.55;94373.91;5023013;28;20330;-63
2022/11/05 12:06:48;;;;;;;14.95;13.27;;;;;;;17.37;44.15;94381.09;5016907;28;20303;-64